Aérodrome :
LOGIN :

S'inscrire | Disclaimer

   EN    FR    IT 

 










Légende :    VFR   VFR Marginal   IFR   IFR Intensif   IFR Très Intensif
Visi : 
Plafond : 
>= 8 km
>= 3000ft
5 à 8 km
1000 à 3000 ft
1500m à 5 km
500 à 1000 ft
800 à 1500m
200 à 500 ft
< 800m
< 200 ft
Symboles :   Orages  Brouillard  Fortes neiges  Fortes précipitations  Vent > 20 kt
SIGMETs :   Divers  Orages  Givrage  Turbulence  Onde Orograph.  Cendres Volcan.







- Altitude de l'aérodrome : 117 ft
- Code IATA : NWI
- Voir les cartes d'approche


EGSH - Norwich

DERNIER METAR :
  • 181550Z 23017KT 9999 SCT041 22/13 Q1009 NOSIG

METARs EXPIRÉS :
  • 181520Z 24020KT 9999 SCT042 22/13 Q1008 NOSIG
  • 181450Z 24021KT 9999 FEW038 22/12 Q1008
  • 181420Z 24018KT 220V280 9999 FEW038 22/12 Q1008 NOSIG
  • 181350Z 24019KT CAVOK 22/12 Q1007 NOSIG
  • 181320Z 23019G30KT CAVOK 22/12 Q1007 NOSIG
  • 181250Z 23020KT 200V270 9999 FEW025 23/12 Q1006 NOSIG

TAF TAF EGSH
Valide du 18 à 15h jusqu'au 19 à 00h UTC


181404Z 1815/1824 21018KT 9999 FEW030
TEMPO 1815/1820 23020G30KT
ATIS : +44 1603 420 640
Pas de NOTAMs connus pour ce terrain.
2 SIGMETs publiés pour la FIR London (EGTT) :
 
Turbulence forte
EGTT SIGMET 08 VALID 181400/181800 EGRR
EGTT LONDON FIR SEV TURB FCST WI N5500 W00232 - N5500 E00458 - N5459 E00458 - N5348 E00354 - N5351 W00234 - N5458 W00234 - N5500 W00232 SFC/FL060 MOV NE 15KT NC=
Onde orographique forte
EGTT SIGMET 07 VALID 181400/181800 EGRR
EGTT LONDON FIR SEV MTW FCST WI N5221 E00156 - N5039 W00347 - N5209 W00411 - N5500 W00420 - N5500 E00203 - N5221 E00156 FL040/240 STNR NC=



MET'MAP, la Météo Aéronautique d'un coup d'oeil ! - Copyright ORBIFLY Décembre 2007 - Disclaimer

ORBIFLY MET'MAP TEAM :

Programmation & Développement : Alexandra Zaïnal
Conception & Développement : Baudouin d'Aumeries
Co-Programmation & Développement : Marc-Olivier Méhu
Soutien technique & logistique : Manuel Goepfert

Contact : metmap@orbifly.com




SOURCES & CREDITS :

   NOAA